createdAt,value
2019-02-06T00:02:00.356Z,7.63
2019-02-06T00:04:28.764Z,7.43
2019-02-06T00:06:57.220Z,8.37
2019-02-06T00:09:25.690Z,7.33
2019-02-06T00:11:54.248Z,8.53
2019-02-06T00:14:32.430Z,7.73
2019-02-06T00:17:01.555Z,7.77
2019-02-06T00:19:30.382Z,8.40
2019-02-06T00:21:59.217Z,8.10
2019-02-06T00:24:28.150Z,8.57
2019-02-06T00:26:56.531Z,7.50
2019-02-06T00:29:25.287Z,8.80
2019-02-06T00:31:53.702Z,8.90
2019-02-06T00:34:43.136Z,9.10
2019-02-06T00:37:11.707Z,9.53
2019-02-06T00:39:40.136Z,9.00
2019-02-06T00:42:08.595Z,8.43
2019-02-06T00:44:37.454Z,7.70
2019-02-06T00:47:06.037Z,8.67
2019-02-06T00:49:34.644Z,8.13
2019-02-06T00:52:03.202Z,8.03
2019-02-06T00:54:31.807Z,8.17
2019-02-06T00:57:00.431Z,9.27
2019-02-06T00:59:29.322Z,8.00
2019-02-06T01:01:57.806Z,9.13
2019-02-06T01:04:26.422Z,8.73
2019-02-06T01:06:54.892Z,8.20
2019-02-06T01:09:23.421Z,9.43
2019-02-06T01:11:51.896Z,9.30
2019-02-06T01:14:20.428Z,9.10
2019-02-06T01:16:49.341Z,9.60
2019-02-06T01:19:18.044Z,9.27
2019-02-06T01:21:46.575Z,8.87
2019-02-06T01:24:15.033Z,9.27
2019-02-06T01:26:43.746Z,9.13
2019-02-06T01:29:12.214Z,9.00
2019-02-06T01:31:40.731Z,9.07
2019-02-06T01:34:09.612Z,9.40
2019-02-06T01:36:38.059Z,9.50
2019-02-06T01:39:11.480Z,9.33
2019-02-06T01:41:39.963Z,9.17
2019-02-06T01:44:08.457Z,9.53
2019-02-06T01:46:37.244Z,10.13
2019-02-06T01:49:06.003Z,8.97
2019-02-06T01:51:34.581Z,8.73
2019-02-06T01:54:03.231Z,9.40
2019-02-06T01:56:31.972Z,8.90
2019-02-06T01:59:00.574Z,8.77
2019-02-06T02:01:29.432Z,8.47
2019-02-06T02:03:58.157Z,8.43
2019-02-06T02:06:26.521Z,8.60
2019-02-06T02:08:57.271Z,9.47
2019-02-06T02:11:25.838Z,7.93
2019-02-06T02:13:54.302Z,7.97
2019-02-06T02:16:22.901Z,8.23
2019-02-06T02:18:51.447Z,7.60
2019-02-06T02:21:20.383Z,7.63
2019-02-06T02:23:48.864Z,7.63
2019-02-06T02:26:17.175Z,8.40
2019-02-06T02:28:45.575Z,8.77
2019-02-06T02:31:14.398Z,8.03
2019-02-06T02:33:42.730Z,8.70
2019-02-06T02:36:15.846Z,8.10
2019-02-06T02:38:41.554Z,8.60
2019-02-06T02:41:09.857Z,7.47
2019-02-06T02:43:38.543Z,8.13
2019-02-06T02:46:07.430Z,7.93
2019-02-06T02:48:35.912Z,9.20
2019-02-06T02:51:04.669Z,7.60
2019-02-06T02:53:33.691Z,8.13
2019-02-06T02:56:02.262Z,7.83
2019-02-06T02:58:30.663Z,7.40
2019-02-06T03:01:36.611Z,8.83
2019-02-06T03:04:16.663Z,7.97
2019-02-06T03:06:45.302Z,7.97
2019-02-06T03:09:13.829Z,7.73
2019-02-06T03:11:42.392Z,7.13
2019-02-06T03:14:11.249Z,8.50
2019-02-06T03:16:39.755Z,7.63
2019-02-06T03:19:08.199Z,8.30
2019-02-06T03:21:36.954Z,7.80
2019-02-06T03:24:05.524Z,7.80
2019-02-06T03:26:33.958Z,8.13
2019-02-06T03:29:02.666Z,7.90
2019-02-06T03:31:31.293Z,8.23
2019-02-06T03:33:59.760Z,7.73
2019-02-06T03:36:39.567Z,7.90
2019-02-06T03:38:58.754Z,8.33
2019-02-06T03:41:27.426Z,8.17
2019-02-06T03:43:55.979Z,8.17
2019-02-06T03:46:24.897Z,8.17
2019-02-06T03:48:53.366Z,8.83
2019-02-06T03:51:21.854Z,7.93
2019-02-06T03:53:50.551Z,7.60
2019-02-06T03:56:19.006Z,8.37
2019-02-06T03:58:47.458Z,8.53
2019-02-06T04:01:15.982Z,8.80
2019-02-06T04:03:44.747Z,8.93
2019-02-06T04:06:13.485Z,7.80
2019-02-06T04:08:42.021Z,7.73
2019-02-06T04:11:10.549Z,8.23
2019-02-06T04:13:39.202Z,8.50
2019-02-06T04:16:07.682Z,8.33
2019-02-06T04:18:36.098Z,7.07
2019-02-06T04:21:04.624Z,7.90
2019-02-06T04:23:33.020Z,7.37
2019-02-06T04:26:01.635Z,8.03
2019-02-06T04:28:30.217Z,8.27
2019-02-06T04:30:58.598Z,8.07
2019-02-06T04:33:27.182Z,8.10
2019-02-06T04:35:56.130Z,7.27
2019-02-06T04:38:24.653Z,7.50
2019-02-06T04:40:53.180Z,8.23
2019-02-06T04:43:22.895Z,7.50
2019-02-06T04:45:51.282Z,7.67
2019-02-06T04:48:19.802Z,7.13
2019-02-06T04:50:48.343Z,7.73
2019-02-06T04:53:16.827Z,8.00
2019-02-06T04:55:45.450Z,7.57
2019-02-06T04:58:14.088Z,8.00
2019-02-06T05:00:42.456Z,7.40
2019-02-06T05:03:10.994Z,7.57
2019-02-06T05:05:39.663Z,7.37
2019-02-06T05:08:08.773Z,8.50
2019-02-06T05:10:37.232Z,7.40
2019-02-06T05:13:06.043Z,7.87
2019-02-06T05:15:34.478Z,8.83
2019-02-06T05:18:02.975Z,10.33
2019-02-06T05:20:37.575Z,9.93
2019-02-06T05:23:07.742Z,9.20
2019-02-06T05:25:36.189Z,8.73
2019-02-06T05:28:05.449Z,8.33
2019-02-06T05:30:34.047Z,8.83
2019-02-06T05:33:02.531Z,8.50
2019-02-06T05:35:31.065Z,8.20
2019-02-06T05:38:00.232Z,8.90
2019-02-06T05:40:29.051Z,8.30
2019-02-06T05:42:58.807Z,8.27
2019-02-06T05:45:27.308Z,8.03
2019-02-06T05:47:55.825Z,10.50
2019-02-06T05:50:24.538Z,13.17
2019-02-06T05:52:52.987Z,12.33
2019-02-06T05:55:21.660Z,8.67
2019-02-06T05:57:50.115Z,9.63
2019-02-06T06:00:26.120Z,8.40
2019-02-06T06:02:54.697Z,9.30
2019-02-06T06:05:23.197Z,10.27
2019-02-06T06:07:51.860Z,12.23
2019-02-06T06:10:20.542Z,14.27
2019-02-06T06:12:49.282Z,14.17
2019-02-06T06:15:18.604Z,15.73
2019-02-06T06:17:47.500Z,14.53
2019-02-06T06:20:16.922Z,13.03
2019-02-06T06:22:45.315Z,14.97
2019-02-06T06:25:14.755Z,18.83
2019-02-06T06:27:43.796Z,23.07
2019-02-06T06:30:14.534Z,21.83
2019-02-06T06:32:43.201Z,19.93
2019-02-06T06:35:11.924Z,20.83
2019-02-06T06:37:41.512Z,21.67
2019-02-06T06:40:13.313Z,24.90
2019-02-06T06:42:42.157Z,25.30
2019-02-06T06:45:30.091Z,27.53
2019-02-06T06:47:58.672Z,25.60
2019-02-06T06:50:27.172Z,23.30
2019-02-06T06:52:56.734Z,21.37
2019-02-06T06:55:25.368Z,24.47
2019-02-06T06:57:53.926Z,21.63
2019-02-06T07:00:24.674Z,20.37
2019-02-06T07:02:52.806Z,20.03
2019-02-06T07:05:21.518Z,21.60
2019-02-06T07:07:52.009Z,20.50
2019-02-06T07:10:21.320Z,21.23
2019-02-06T07:12:49.722Z,20.17
2019-02-06T07:15:20.306Z,19.83
2019-02-06T07:17:48.620Z,16.30
2019-02-06T07:20:17.472Z,18.17
2019-02-06T07:22:45.998Z,16.43
2019-02-06T07:25:16.142Z,17.10
2019-02-06T07:27:44.413Z,17.53
2019-02-06T07:30:18.771Z,18.13
2019-02-06T07:32:46.929Z,14.67
2019-02-06T07:35:15.179Z,15.23
2019-02-06T07:37:43.482Z,14.97
2019-02-06T07:40:11.829Z,14.50
2019-02-06T07:42:39.921Z,14.20
2019-02-06T07:45:09.226Z,15.83
2019-02-06T07:47:37.303Z,15.87
2019-02-06T07:50:07.939Z,15.97
2019-02-06T07:52:36.169Z,16.67
2019-02-06T07:55:05.411Z,17.20
2019-02-06T07:57:34.557Z,17.47
2019-02-06T08:00:04.468Z,17.07
2019-02-06T08:02:34.385Z,17.63
2019-02-06T08:05:03.529Z,23.47
2019-02-06T08:07:32.089Z,19.83
2019-02-06T08:10:00.746Z,20.27
2019-02-06T08:12:29.317Z,18.23
2019-02-06T08:14:57.800Z,15.73
2019-02-06T08:17:26.494Z,14.47
2019-02-06T08:19:55.181Z,17.43
2019-02-06T08:22:23.867Z,20.40
2019-02-06T08:24:52.579Z,22.67
2019-02-06T08:27:21.063Z,20.67
2019-02-06T08:29:49.849Z,19.80
2019-02-06T08:32:18.438Z,18.70
2019-02-06T08:34:46.982Z,19.73
2019-02-06T08:37:15.168Z,14.80
2019-02-06T08:39:43.689Z,15.60
2019-02-06T08:42:11.734Z,15.03
2019-02-06T08:44:40.180Z,13.40
2019-02-06T08:47:08.306Z,13.93
2019-02-06T08:49:36.372Z,13.90
2019-02-06T08:52:04.810Z,14.80
2019-02-06T08:54:33.712Z,13.57
2019-02-06T08:57:02.283Z,13.03
2019-02-06T08:59:30.947Z,12.83
2019-02-06T09:01:59.960Z,12.93
2019-02-06T09:04:28.497Z,11.80
2019-02-06T09:06:57.024Z,11.30
2019-02-06T09:09:25.503Z,13.03
2019-02-06T09:11:54.067Z,11.67
2019-02-06T09:14:22.912Z,10.93
2019-02-06T09:16:51.353Z,11.23
2019-02-06T09:19:19.834Z,10.30
2019-02-06T09:21:48.455Z,11.40
2019-02-06T09:24:16.867Z,10.50
2019-02-06T09:26:45.379Z,9.57
2019-02-06T09:29:14.148Z,10.03
2019-02-06T09:31:42.527Z,9.60
2019-02-06T09:34:11.639Z,8.60
2019-02-06T09:36:40.196Z,7.80
2019-02-06T09:39:11.901Z,7.73
2019-02-06T09:41:40.458Z,7.63
2019-02-06T09:44:08.710Z,8.13
2019-02-06T09:46:37.381Z,6.90
2019-02-06T09:49:05.680Z,7.40
2019-02-06T09:51:34.692Z,7.17
2019-02-06T09:54:03.373Z,7.30
2019-02-06T09:56:32.031Z,8.57
2019-02-06T09:59:00.796Z,7.60
2019-02-06T10:01:29.268Z,7.47
2019-02-06T10:03:57.881Z,7.87
2019-02-06T10:06:26.134Z,7.93
2019-02-06T10:08:54.515Z,8.20
2019-02-06T10:11:23.209Z,7.70
2019-02-06T10:13:54.132Z,7.87
2019-02-06T10:16:22.768Z,8.40
2019-02-06T10:18:51.523Z,6.40
2019-02-06T10:21:20.287Z,7.80
2019-02-06T10:23:48.644Z,8.03
2019-02-06T10:26:17.231Z,7.03
2019-02-06T10:28:45.784Z,7.87
2019-02-06T10:31:14.234Z,7.87
2019-02-06T10:33:42.747Z,8.40
2019-02-06T10:36:11.537Z,7.40
2019-02-06T10:38:39.975Z,7.57
2019-02-06T10:41:08.302Z,8.17
2019-02-06T10:43:36.849Z,7.53
2019-02-06T10:46:05.358Z,7.57
2019-02-06T10:48:33.534Z,7.93
2019-02-06T10:51:02.084Z,7.47
2019-02-06T10:53:30.334Z,8.23
2019-02-06T10:55:59.295Z,8.70
2019-02-06T10:58:28.137Z,9.23
2019-02-06T11:00:59.051Z,9.23
2019-02-06T11:03:27.500Z,8.40
2019-02-06T11:05:56.583Z,8.03
2019-02-06T11:08:25.344Z,7.63
2019-02-06T11:10:56.098Z,7.50
2019-02-06T11:13:24.620Z,5.00
2019-02-06T11:15:53.333Z,6.40
2019-02-06T11:18:22.017Z,8.03
2019-02-06T11:20:50.563Z,7.60
2019-02-06T11:36:24.594Z,8.93
2019-02-06T11:38:53.040Z,8.47
2019-02-06T11:41:21.519Z,8.47
2019-02-06T11:43:50.533Z,7.93
2019-02-06T11:46:19.027Z,7.23
2019-02-06T11:48:47.471Z,8.47
2019-02-06T11:51:16.313Z,7.63
2019-02-06T11:53:44.798Z,6.50
2019-02-06T11:56:13.159Z,6.23
2019-02-06T11:58:41.523Z,7.17
2019-02-06T12:01:38.136Z,7.07
2019-02-06T12:04:06.397Z,7.20
2019-02-06T12:06:34.799Z,7.77
2019-02-06T12:09:05.729Z,7.23
2019-02-06T12:11:33.847Z,6.70
2019-02-06T12:14:02.486Z,7.33
2019-02-06T12:16:31.709Z,7.57
2019-02-06T12:18:59.940Z,6.87
2019-02-06T12:21:28.118Z,6.23
2019-02-06T12:23:56.185Z,7.20
2019-02-06T12:26:24.784Z,6.57
2019-02-06T12:28:52.898Z,7.77
2019-02-06T12:31:21.338Z,7.37
2019-02-06T12:33:50.609Z,6.80
2019-02-06T12:36:19.191Z,6.57
2019-02-06T12:38:53.506Z,6.97
2019-02-06T12:41:18.049Z,8.20
2019-02-06T12:43:46.464Z,7.73
2019-02-06T12:46:14.985Z,6.00
2019-02-06T12:48:44.018Z,6.50
2019-02-06T12:51:12.568Z,6.50
2019-02-06T12:53:41.187Z,6.37
2019-02-06T12:56:09.942Z,7.13
2019-02-06T12:58:38.219Z,6.50
2019-02-06T13:01:07.152Z,6.30
2019-02-06T13:03:35.606Z,6.03
2019-02-06T13:06:04.347Z,6.43
2019-02-06T13:08:32.583Z,6.60
2019-02-06T13:11:00.988Z,6.30
2019-02-06T13:13:29.500Z,6.03
2019-02-06T13:15:58.183Z,5.53
2019-02-06T13:18:26.429Z,7.07
2019-02-06T13:20:54.583Z,7.40
2019-02-06T13:23:23.214Z,5.50
2019-02-06T13:25:51.556Z,7.30
2019-02-06T13:28:20.056Z,7.17
2019-02-06T13:30:48.555Z,6.23
2019-02-06T13:33:17.416Z,6.97
2019-02-06T13:35:45.899Z,6.53
2019-02-06T13:38:14.592Z,7.07
2019-02-06T13:40:45.823Z,7.97
2019-02-06T13:43:13.680Z,6.20
2019-02-06T13:45:44.211Z,5.97
2019-02-06T13:48:13.070Z,5.63
2019-02-06T13:50:41.925Z,5.70
2019-02-06T13:53:10.853Z,5.47
2019-02-06T13:55:39.604Z,4.80
2019-02-06T13:58:19.177Z,5.90
2019-02-06T14:00:39.880Z,7.33
2019-02-06T14:03:08.803Z,7.87
2019-02-06T14:05:37.738Z,4.80
2019-02-06T14:08:08.825Z,4.37
2019-02-06T14:10:37.551Z,5.40
2019-02-06T14:13:06.496Z,4.40
2019-02-06T14:15:37.449Z,6.03
2019-02-06T14:18:06.782Z,6.50
2019-02-06T14:20:35.434Z,6.87
2019-02-06T14:23:07.375Z,7.60
2019-02-06T14:25:57.207Z,10.67
2019-02-06T14:29:06.854Z,7.03
2019-02-06T14:32:32.258Z,7.33
2019-02-06T14:35:38.057Z,8.00
2019-02-06T14:38:56.884Z,8.27
2019-02-06T14:42:09.704Z,7.17
2019-02-06T14:45:33.769Z,6.70
2019-02-06T14:48:18.133Z,7.07
2019-02-06T14:50:56.659Z,6.80
2019-02-06T14:54:15.209Z,7.00
2019-02-06T14:57:37.554Z,7.43
2019-02-06T15:00:20.750Z,7.57
2019-02-06T15:03:27.521Z,7.47
2019-02-06T15:06:20.410Z,7.17
2019-02-06T15:09:36.710Z,7.50
2019-02-06T15:12:41.753Z,8.67
2019-02-06T15:15:46.511Z,9.03
2019-02-06T15:19:09.025Z,8.73
2019-02-06T15:22:13.859Z,7.43
2019-02-06T15:25:01.696Z,8.77
2019-02-06T15:27:57.619Z,9.80
2019-02-06T15:30:51.695Z,8.17
2019-02-06T15:33:53.534Z,7.47
2019-02-06T15:36:35.078Z,8.10
2019-02-06T15:39:41.310Z,9.90
2019-02-06T15:42:58.707Z,8.53
2019-02-06T15:45:37.119Z,6.93
2019-02-06T15:48:56.423Z,6.63
2019-02-06T15:52:01.563Z,7.70
2019-02-06T15:55:05.475Z,7.57
2019-02-06T15:58:01.830Z,6.83
2019-02-06T16:01:23.230Z,8.10
2019-02-06T16:04:44.220Z,7.67
2019-02-06T16:07:54.809Z,8.50
2019-02-06T16:11:03.346Z,8.03
2019-02-06T16:14:09.180Z,8.50
2019-02-06T16:17:34.392Z,12.63
2019-02-06T16:20:27.551Z,10.33
2019-02-06T16:23:13.821Z,8.63
2019-02-06T16:26:11.618Z,8.17
2019-02-06T16:29:15.423Z,7.23
2019-02-06T16:32:16.122Z,8.13
2019-02-06T16:35:34.510Z,7.47
2019-02-06T16:38:35.758Z,7.43
2019-02-06T16:41:35.441Z,7.20
2019-02-06T16:44:23.691Z,6.87
2019-02-06T16:47:44.649Z,6.23
2019-02-06T16:50:13.486Z,7.90
2019-02-06T16:53:25.617Z,8.20
2019-02-06T16:56:40.278Z,8.20
2019-02-06T16:59:33.950Z,8.70
2019-02-06T17:02:25.843Z,8.10
2019-02-06T17:05:30.974Z,8.27
2019-02-06T17:08:30.362Z,8.53
2019-02-06T17:11:34.235Z,7.10
2019-02-06T17:14:26.780Z,7.17
2019-02-06T17:17:48.987Z,7.30
2019-02-06T17:21:00.618Z,7.10
2019-02-06T17:24:02.451Z,7.63
2019-02-06T17:27:14.780Z,8.73
2019-02-06T17:30:26.373Z,9.13
2019-02-06T17:33:33.866Z,9.57
2019-02-06T17:36:32.656Z,8.13
2019-02-06T17:39:40.918Z,8.50
2019-02-06T17:42:31.815Z,10.57
2019-02-06T17:45:49.820Z,9.13
2019-02-06T17:48:49.940Z,9.70
2019-02-06T17:52:27.540Z,10.67
2019-02-06T17:55:20.707Z,9.60
2019-02-06T17:57:51.175Z,9.93
2019-02-06T18:00:43.339Z,8.77
2019-02-06T18:03:33.006Z,8.40
2019-02-06T18:06:03.364Z,9.27
2019-02-06T18:08:31.463Z,8.33
2019-02-06T18:10:59.994Z,8.17
2019-02-06T18:13:28.702Z,8.20
2019-02-06T18:15:57.259Z,7.33
2019-02-06T18:18:26.021Z,7.40
2019-02-06T18:20:54.657Z,8.13
2019-02-06T18:23:23.180Z,7.43
2019-02-06T18:25:53.704Z,7.17
2019-02-06T18:28:22.039Z,8.20
2019-02-06T18:30:50.573Z,6.77
2019-02-06T18:33:21.084Z,7.83
2019-02-06T18:35:49.636Z,6.73
2019-02-06T18:38:17.769Z,7.80
2019-02-06T18:40:47.731Z,8.63
2019-02-06T18:43:16.467Z,8.20
2019-02-06T18:45:45.194Z,7.83
2019-02-06T18:48:13.307Z,7.97
2019-02-06T18:50:42.023Z,7.63
2019-02-06T18:53:10.598Z,8.10
2019-02-06T18:55:39.301Z,7.10
2019-02-06T18:58:09.262Z,6.10
2019-02-06T19:00:37.983Z,7.23
2019-02-06T19:03:13.262Z,10.10
2019-02-06T19:05:41.968Z,10.50
2019-02-06T19:08:10.611Z,6.93
2019-02-06T19:10:39.420Z,8.47
2019-02-06T19:13:08.291Z,7.50
2019-02-06T19:15:36.911Z,7.53
2019-02-06T19:18:09.515Z,7.90
2019-02-06T19:20:38.206Z,9.40
2019-02-06T19:23:06.737Z,11.10
2019-02-06T19:25:35.463Z,10.33
2019-02-06T19:28:03.892Z,9.37
2019-02-06T19:30:34.476Z,7.47
2019-02-06T19:33:03.249Z,8.17
2019-02-06T19:35:31.870Z,8.20
2019-02-06T19:38:00.293Z,6.87
2019-02-06T19:40:28.967Z,6.90
2019-02-06T19:43:00.457Z,7.40
2019-02-06T19:45:28.024Z,7.90
2019-02-06T19:47:56.973Z,8.47
2019-02-06T19:50:27.755Z,6.83
2019-02-06T19:52:56.436Z,6.57
2019-02-06T19:55:25.058Z,7.37
2019-02-06T19:57:53.861Z,7.23
2019-02-06T20:00:26.467Z,6.40
2019-02-06T20:02:55.324Z,7.27
2019-02-06T20:05:24.702Z,6.53
2019-02-06T20:07:54.035Z,7.10
2019-02-06T20:10:25.579Z,6.83
2019-02-06T20:12:55.478Z,6.80
2019-02-06T20:15:25.290Z,6.03
2019-02-06T20:17:56.017Z,7.17
2019-02-06T20:20:26.878Z,7.50
2019-02-06T20:22:57.947Z,11.67
2019-02-06T20:25:28.762Z,7.10
2019-02-06T20:27:59.599Z,6.50
2019-02-06T20:30:30.943Z,6.97
2019-02-06T20:33:01.583Z,6.67
2019-02-06T20:35:32.306Z,5.80
2019-02-06T20:38:03.074Z,6.37
2019-02-06T20:40:35.947Z,6.43
2019-02-06T20:43:06.577Z,6.67
2019-02-06T20:45:37.672Z,6.17
2019-02-06T20:48:08.368Z,7.00
2019-02-06T20:50:39.436Z,6.03
2019-02-06T20:53:09.862Z,6.73
2019-02-06T20:55:39.979Z,7.03
2019-02-06T20:58:10.318Z,10.73
2019-02-06T21:00:40.561Z,9.40
2019-02-06T21:03:10.650Z,8.20
2019-02-06T21:05:40.026Z,7.80
2019-02-06T21:08:09.459Z,7.43
2019-02-06T21:10:38.414Z,7.57
2019-02-06T21:13:07.587Z,9.50
2019-02-06T21:15:36.369Z,6.77
2019-02-06T21:18:05.473Z,8.47
2019-02-06T21:20:34.241Z,8.03
2019-02-06T21:23:03.632Z,7.10
2019-02-06T21:25:32.595Z,7.00
2019-02-06T21:28:01.676Z,7.37
2019-02-06T21:30:32.865Z,8.63
2019-02-06T21:33:02.122Z,7.53
2019-02-06T21:35:30.936Z,7.30
2019-02-06T21:38:00.150Z,8.13
2019-02-06T21:40:30.627Z,7.40
2019-02-06T21:42:59.300Z,7.10
2019-02-06T21:45:28.236Z,6.50
2019-02-06T21:47:57.029Z,6.87
2019-02-06T21:50:25.830Z,6.60
2019-02-06T21:52:54.781Z,7.50
2019-02-06T21:55:23.003Z,7.90
2019-02-06T21:57:51.474Z,7.17
2019-02-06T22:00:22.199Z,6.93
2019-02-06T22:02:50.766Z,6.77
2019-02-06T22:05:19.123Z,8.97
2019-02-06T22:07:48.161Z,7.73
2019-02-06T22:10:17.643Z,7.07
2019-02-06T22:12:46.191Z,8.43
2019-02-06T22:15:20.017Z,7.17
2019-02-06T22:17:48.479Z,7.63
2019-02-06T22:20:17.219Z,6.80
2019-02-06T22:22:46.215Z,6.67
2019-02-06T22:25:15.271Z,6.40
2019-02-06T22:27:43.699Z,6.63
2019-02-06T22:30:15.292Z,7.63
2019-02-06T22:32:43.707Z,6.63
2019-02-06T22:35:12.649Z,6.60
2019-02-06T22:37:41.474Z,6.63
2019-02-06T22:40:12.766Z,6.00
2019-02-06T22:42:43.173Z,5.87
2019-02-06T22:45:16.670Z,26.70
2019-02-06T22:47:45.080Z,15.13
2019-02-06T22:50:14.802Z,7.07
2019-02-06T22:52:43.379Z,6.50
2019-02-06T22:55:11.955Z,5.87
2019-02-06T22:57:40.202Z,5.93
2019-02-06T23:01:03.050Z,6.90
2019-02-06T23:03:37.274Z,7.03
2019-02-06T23:06:07.442Z,7.37
2019-02-06T23:08:36.213Z,6.40
2019-02-06T23:11:05.560Z,6.50
2019-02-06T23:13:34.173Z,7.10
2019-02-06T23:16:03.149Z,6.40
2019-02-06T23:18:31.995Z,6.33
2019-02-06T23:21:00.287Z,6.53
2019-02-06T23:23:28.443Z,5.87
2019-02-06T23:25:56.867Z,6.13
2019-02-06T23:28:24.950Z,6.23
2019-02-06T23:30:52.977Z,6.50
2019-02-06T23:33:21.312Z,6.60
2019-02-06T23:35:49.735Z,6.97
2019-02-06T23:38:17.998Z,6.30
2019-02-06T23:40:46.744Z,6.50
2019-02-06T23:43:15.114Z,6.07
2019-02-06T23:45:43.195Z,5.93
2019-02-06T23:48:11.323Z,6.17
2019-02-06T23:50:39.660Z,5.50
2019-02-06T23:53:08.131Z,6.03
2019-02-06T23:55:36.236Z,5.80
2019-02-06T23:58:05.331Z,6.03
